Titan — WYA3059 — position and weather

sailwx.info

Track history (hours):
 
Tides and Currents Weather Stations Pressure Air Temp Water Temp Dewpoint Dewpoint Depression Visibility Wind Speed Wind Dir Waves Ship Positions

Titan

Owner: G & H Towing Company, GALVESTON, TX. More information available from US FCC via Universal Licensing System and Coast Guard Vessel Documentation Center.

Last reported at 2017-Dec-03 18:36 UTC. Time now 2017-Dec-17 09:58 UTC.
Position N 29°43' W 095°16'.
Warning: this ship's position is 13 days out of date.

Length 27 m.

Type: Tug. MMSI: 366921850.

Date/timePositionNaut miles runAvg speedWind from/ knotsBaromVisibWave heightAir tempDewpointWater temp
2017-Dec-03 18:36N 29°43' W 095°16'0 0.1
2017-Dec-03 18:30N 29°43' W 095°16'1 2.6
2017-Dec-03 17:58N 29°43' W 095°15'2 3.8
2017-Dec-03 17:30N 29°44' W 095°13'3 3.3
2017-Dec-03 16:35N 29°44' W 095°09'0 4.0
2017-Dec-03 16:29N 29°44' W 095°09'2 3.8
2017-Dec-03 15:57N 29°44' W 095°07'0 0.0
2017-Dec-03 09:17N 29°44' W 095°07'0 0.0
2017-Dec-03 08:47N 29°45' W 095°07'0 0.0
2017-Dec-03 08:11N 29°44' W 095°07'0 0.0
2017-Dec-03 06:08N 29°44' W 095°07'0 0.0
2017-Dec-03 05:50N 29°44' W 095°07'0 0.0
2017-Dec-03 05:20N 29°44' W 095°07'0 0.0
2017-Dec-03 04:59N 29°44' W 095°07'0 0.0
2017-Dec-03 04:26N 29°44' W 095°07'0 0.0
2017-Dec-03 03:59N 29°44' W 095°07'0 0.0
2017-Dec-03 00:02N 29°44' W 095°07'0 0.0
2017-Dec-02 20:44N 29°44' W 095°07'0 0.0
2017-Dec-02 20:28N 29°44' W 095°07'1 1.9
2017-Dec-02 19:52N 29°44' W 095°08'5 3.3
2017-Dec-02 18:28N 29°43' W 095°13'2 3.5
2017-Dec-02 17:59N 29°43' W 095°15'2 3.3
2017-Dec-02 17:30N 29°44' W 095°17'0 1.0
2017-Dec-02 17:01N 29°45' W 095°17'0 0.0
2017-Dec-02 16:30N 29°45' W 095°17'0 0.0
2017-Dec-02 16:00N 29°45' W 095°17'0 0.0
2017-Dec-02 15:30N 29°45' W 095°17'0 0.0
2017-Dec-02 15:00N 29°45' W 095°17'0 0.0
2017-Dec-02 14:30N 29°45' W 095°17'0 0.0
2017-Dec-02 14:00N 29°45' W 095°17'0 0.1
2017-Dec-02 13:24N 29°45' W 095°17'0 0.1
2017-Dec-02 12:53N 29°45' W 095°17'0 0.2
2017-Dec-02 12:30N 29°45' W 095°17'7 5.4
2017-Dec-02 11:12N 29°44' W 095°09'2 7.6
2017-Dec-02 10:58N 29°44' W 095°07'0 0.0
2017-Dec-02 02:25N 29°44' W 095°07'1 1.8
2017-Dec-02 01:48N 29°44' W 095°08'0 1.4
2017-Dec-02 01:29N 29°44' W 095°07'1 1.3
2017-Dec-02 00:57N 29°45' W 095°07'1 0.7
2017-Dec-01 23:41N 29°45' W 095°06'1 4.3
2017-Dec-01 23:29N 29°46' W 095°05'2 3.5
2017-Dec-01 23:00N 29°45' W 095°07'1 0.4
2017-Dec-01 20:02N 29°44' W 095°08'1 0.5
2017-Dec-01 17:46N 29°45' W 095°07'0 0.0
2017-Dec-01 14:19N 29°44' W 095°07'0 0.0
2017-Dec-01 10:14N 29°44' W 095°07'0 0.0
2017-Dec-01 09:56N 29°44' W 095°07'0 0.0
2017-Dec-01 07:08N 29°44' W 095°07'0 0.0
2017-Dec-01 06:56N 29°44' W 095°07'1 1.8
2017-Dec-01 06:27N 29°44' W 095°08'0 0.0
2017-Dec-01 05:52N 29°44' W 095°08'0 1.0
2017-Dec-01 05:30N 29°44' W 095°07'1 0.7
2017-Dec-01 04:20N 29°45' W 095°07'0 0.0
2017-Dec-01 03:57N 29°45' W 095°07'2 5.1
2017-Dec-01 03:28N 29°45' W 095°04'1 2.5
2017-Dec-01 03:00N 29°44' W 095°03'0 0.1
2017-Dec-01 02:27N 29°44' W 095°03'2 2.8
2017-Dec-01 01:44N 29°43' W 095°01'1 2.7
2017-Dec-01 01:30N 29°42' W 095°01'4 7.3
2017-Dec-01 00:56N 29°45' W 095°04'2 4.5
2017-Dec-01 00:25N 29°45' W 095°07'1 1.0
2017-Nov-30 23:08N 29°44' W 095°08'1 8.0
2017-Nov-30 22:58N 29°44' W 095°09'5 2.8
2017-Nov-30 21:09N 29°44' W 095°15'1 6.8
2017-Nov-30 21:00N 29°44' W 095°17'1 2.2
2017-Nov-30 20:23N 29°45' W 095°17'2 4.0
2017-Nov-30 19:59N 29°44' W 095°16'0 0.0
2017-Nov-30 11:29N 29°44' W 095°16'0 0.0
2017-Nov-30 10:53N 29°44' W 095°16'0 0.0
2017-Nov-30 10:01N 29°44' W 095°16'0 0.0
2017-Nov-30 09:59N 29°44' W 095°16'0 0.0
2017-Nov-30 09:28N 29°44' W 095°16'0 0.0
2017-Nov-30 08:40N 29°44' W 095°16'0 0.0
2017-Nov-30 08:16N 29°44' W 095°16'0 0.0
2017-Nov-30 07:40N 29°44' W 095°16'0 0.0
2017-Nov-30 07:28N 29°44' W 095°16'0 0.0
2017-Nov-30 05:55N 29°44' W 095°16'0 0.0
2017-Nov-30 04:52N 29°44' W 095°16'0 0.0
2017-Nov-30 04:28N 29°44' W 095°16'0 0.0
2017-Nov-30 03:04N 29°44' W 095°16'0 0.1
2017-Nov-30 02:59N 29°44' W 095°16'0 0.3
2017-Nov-30 02:30N 29°44' W 095°16'0 0.0
2017-Nov-30 02:00N 29°44' W 095°16'1 2.4
2017-Nov-30 01:30N 29°45' W 095°17'0 0.6
2017-Nov-30 00:59N 29°45' W 095°17'2 4.9
2017-Nov-30 00:30N 29°43' W 095°15'0 0.0
2017-Nov-29 05:20N 29°43' W 095°15'0 0.7
2017-Nov-29 04:58N 29°43' W 095°15'1 1.4
2017-Nov-29 04:05N 29°44' W 095°16'0 0.0
2017-Nov-29 01:31N 29°44' W 095°16'0 0.0
2017-Nov-29 01:13N 29°44' W 095°16'0 0.0
2017-Nov-29 00:57N 29°44' W 095°16'1 1.6
2017-Nov-29 00:26N 29°44' W 095°17'0 0.4
2017-Nov-28 23:53N 29°44' W 095°17'3 6.8
2017-Nov-28 23:30N 29°44' W 095°14'6 0.5
2017-Nov-28 11:59N 29°44' W 095°07'1 0.7
2017-Nov-28 10:44N 29°45' W 095°06'1 0.4
2017-Nov-28 08:32N 29°44' W 095°07'0 7.2
2017-Nov-28 08:30N 29°44' W 095°07'0 0.2
2017-Nov-28 05:22N 29°45' W 095°06'0 0.0
2017-Nov-27 13:27N 29°45' W 095°07'1 1.4
2017-Nov-27 12:56N 29°45' W 095°06'1 1.6
2017-Nov-27 12:27N 29°45' W 095°07'0 0.0
2017-Nov-27 11:54N 29°45' W 095°07'0 0.0
2017-Nov-27 11:21N 29°45' W 095°07'0 0.0
2017-Nov-27 11:00N 29°45' W 095°07'0 0.0
2017-Nov-27 09:54N 29°45' W 095°07'0 0.0
2017-Nov-27 06:33N 29°45' W 095°07'0 0.0
2017-Nov-27 06:15N 29°45' W 095°07'0 0.0
2017-Nov-27 04:45N 29°45' W 095°07'0 0.0
2017-Nov-27 04:12N 29°45' W 095°07'0 0.0
2017-Nov-27 03:57N 29°45' W 095°07'0 0.0
2017-Nov-27 03:30N 29°45' W 095°07'0 0.0
2017-Nov-27 02:57N 29°45' W 095°07'1 1.3
2017-Nov-27 02:23N 29°45' W 095°06'0 0.2
2017-Nov-27 01:58N 29°45' W 095°06'1 2.1
2017-Nov-27 01:28N 29°46' W 095°05'2 0.2
2017-Nov-26 17:52N 29°45' W 095°07'2 5.4
2017-Nov-26 17:30N 29°44' W 095°09'3 4.3
2017-Nov-26 16:49N 29°44' W 095°12'2 5.5
2017-Nov-26 16:29N 29°43' W 095°14'2 2.3
2017-Nov-26 15:39N 29°44' W 095°16'0 0.0
2017-Nov-26 14:42N 29°44' W 095°16'0 0.0
2017-Nov-26 14:15N 29°44' W 095°16'0 0.1
2017-Nov-26 06:51N 29°44' W 095°17'1 3.8
2017-Nov-26 06:30N 29°45' W 095°17'0 0.7
2017-Nov-26 06:00N 29°45' W 095°17'0 0.5
2017-Nov-26 05:30N 29°44' W 095°17'0 0.0
2017-Nov-26 04:53N 29°44' W 095°17'1 1.8
2017-Nov-26 04:24N 29°44' W 095°16'0 0.4
2017-Nov-26 03:52N 29°44' W 095°16'0 0.0
2017-Nov-26 01:46N 29°44' W 095°16'0 0.0
2017-Nov-26 01:30N 29°44' W 095°16'0 0.0
2017-Nov-26 01:00N 29°44' W 095°16'0 0.0
2017-Nov-26 00:28N 29°44' W 095°16'0 0.0
2017-Nov-26 00:00N 29°44' W 095°16'2 2.6
2017-Nov-25 23:24N 29°45' W 095°17'0 0.4
2017-Nov-25 22:56N 29°45' W 095°17'1 2.9
2017-Nov-25 22:29N 29°44' W 095°17'1 1.1
2017-Nov-25 22:00N 29°44' W 095°16'0 0.0
2017-Nov-25 21:20N 29°44' W 095°16'0 0.0
2017-Nov-25 20:53N 29°44' W 095°16'0 0.0
2017-Nov-25 20:26N 29°44' W 095°16'0 0.0
2017-Nov-25 19:50N 29°44' W 095°16'0 0.0
2017-Nov-25 18:14N 29°44' W 095°16'0 0.0
2017-Nov-25 17:59N 29°44' W 095°16'0 0.0
2017-Nov-25 17:17N 29°44' W 095°16'0 0.0
2017-Nov-25 16:38N 29°44' W 095°16'0 0.0
2017-Nov-25 16:29N 29°44' W 095°16'0 0.0
2017-Nov-25 15:10N 29°44' W 095°16'0 2.3
2017-Nov-25 15:00N 29°44' W 095°16'1 2.1
2017-Nov-25 14:30N 29°45' W 095°17'1 2.7
2017-Nov-25 14:00N 29°44' W 095°16'5 6.7
2017-Nov-25 13:16N 29°45' W 095°11'2 6.7
2017-Nov-25 13:00N 29°44' W 095°09'2 3.6
2017-Nov-25 12:30N 29°45' W 095°07'0 0.1
2017-Nov-25 06:11N 29°45' W 095°06'0 0.4
2017-Nov-25 05:39N 29°45' W 095°06'0 2.5
2017-Nov-25 05:30N 29°45' W 095°06'1 1.1
2017-Nov-25 04:59N 29°45' W 095°06'0 0.8
2017-Nov-25 04:26N 29°44' W 095°07'0 0.0
2017-Nov-24 18:51N 29°44' W 095°07'0 0.0
2017-Nov-24 14:49N 29°44' W 095°07'1 2.6
2017-Nov-24 14:28N 29°44' W 095°08'0 1.0
2017-Nov-24 13:58N 29°44' W 095°07'0 0.5
2017-Nov-24 12:57N 29°45' W 095°07'1 0.1
2017-Nov-24 06:02N 29°45' W 095°06'0 2.9
2017-Nov-24 05:59N 29°45' W 095°06'0 0.1
2017-Nov-24 05:30N 29°45' W 095°06'0 0.8
2017-Nov-24 04:59N 29°45' W 095°06'0 0.9
2017-Nov-24 04:29N 29°45' W 095°06'0 0.0
2017-Nov-24 04:00N 29°45' W 095°06'0 0.7
2017-Nov-24 03:30N 29°45' W 095°06'1 0.3
2017-Nov-24 01:24N 29°45' W 095°06'1 1.1
2017-Nov-24 00:56N 29°45' W 095°06'1 0.7
2017-Nov-23 23:38N 29°44' W 095°07'0 0.0
2017-Nov-23 22:50N 29°44' W 095°07'0 0.0
2017-Nov-23 22:28N 29°44' W 095°07'0 0.0
2017-Nov-23 21:58N 29°45' W 095°07'0 0.0
2017-Nov-23 21:06N 29°44' W 095°07'0 0.0
2017-Nov-23 20:48N 29°44' W 095°07'0 0.0
2017-Nov-23 20:29N 29°45' W 095°07'0 0.0
2017-Nov-23 19:58N 29°44' W 095°07'0 0.0
2017-Nov-23 19:29N 29°44' W 095°07'0 0.0
2017-Nov-23 18:59N 29°44' W 095°07'  
Track history (hours):
 
Tides and Currents Weather Stations Pressure Air Temp Water Temp Dewpoint Dewpoint Depression Visibility Wind Speed Wind Dir Waves Ship Positions

Titan

Owner: G & H Towing Company, GALVESTON, TX. More information available from US FCC via Universal Licensing System and Coast Guard Vessel Documentation Center.

Last reported at 2017-Dec-03 18:36 UTC. Time now 2017-Dec-17 09:58 UTC.
Position N 29°43' W 095°16'.
Warning: this ship's position is 13 days out of date.

Length 27 m.

Type: Tug. MMSI: 366921850.

Date/timePositionNaut miles runAvg speedWind from/ knotsBaromVisibWave heightAir tempDewpointWater temp
2017-Dec-03 18:36N 29°43' W 095°16'0 0.1
2017-Dec-03 18:30N 29°43' W 095°16'1 2.6
2017-Dec-03 17:58N 29°43' W 095°15'2 3.8
2017-Dec-03 17:30N 29°44' W 095°13'3 3.3
2017-Dec-03 16:35N 29°44' W 095°09'0 4.0
2017-Dec-03 16:29N 29°44' W 095°09'2 3.8
2017-Dec-03 15:57N 29°44' W 095°07'0 0.0
2017-Dec-03 09:17N 29°44' W 095°07'0 0.0
2017-Dec-03 08:47N 29°45' W 095°07'0 0.0
2017-Dec-03 08:11N 29°44' W 095°07'0 0.0
2017-Dec-03 06:08N 29°44' W 095°07'0 0.0
2017-Dec-03 05:50N 29°44' W 095°07'0 0.0
2017-Dec-03 05:20N 29°44' W 095°07'0 0.0
2017-Dec-03 04:59N 29°44' W 095°07'0 0.0
2017-Dec-03 04:26N 29°44' W 095°07'0 0.0
2017-Dec-03 03:59N 29°44' W 095°07'0 0.0
2017-Dec-03 00:02N 29°44' W 095°07'0 0.0
2017-Dec-02 20:44N 29°44' W 095°07'0 0.0
2017-Dec-02 20:28N 29°44' W 095°07'1 1.9
2017-Dec-02 19:52N 29°44' W 095°08'5 3.3
2017-Dec-02 18:28N 29°43' W 095°13'2 3.5
2017-Dec-02 17:59N 29°43' W 095°15'2 3.3
2017-Dec-02 17:30N 29°44' W 095°17'0 1.0
2017-Dec-02 17:01N 29°45' W 095°17'0 0.0
2017-Dec-02 16:30N 29°45' W 095°17'0 0.0
2017-Dec-02 16:00N 29°45' W 095°17'0 0.0
2017-Dec-02 15:30N 29°45' W 095°17'0 0.0
2017-Dec-02 15:00N 29°45' W 095°17'0 0.0
2017-Dec-02 14:30N 29°45' W 095°17'0 0.0
2017-Dec-02 14:00N 29°45' W 095°17'0 0.1
2017-Dec-02 13:24N 29°45' W 095°17'0 0.1
2017-Dec-02 12:53N 29°45' W 095°17'0 0.2
2017-Dec-02 12:30N 29°45' W 095°17'7 5.4
2017-Dec-02 11:12N 29°44' W 095°09'2 7.6
2017-Dec-02 10:58N 29°44' W 095°07'0 0.0
2017-Dec-02 02:25N 29°44' W 095°07'1 1.8
2017-Dec-02 01:48N 29°44' W 095°08'0 1.4
2017-Dec-02 01:29N 29°44' W 095°07'1 1.3
2017-Dec-02 00:57N 29°45' W 095°07'1 0.7
2017-Dec-01 23:41N 29°45' W 095°06'1 4.3
2017-Dec-01 23:29N 29°46' W 095°05'2 3.5
2017-Dec-01 23:00N 29°45' W 095°07'1 0.4
2017-Dec-01 20:02N 29°44' W 095°08'1 0.5
2017-Dec-01 17:46N 29°45' W 095°07'0 0.0
2017-Dec-01 14:19N 29°44' W 095°07'0 0.0
2017-Dec-01 10:14N 29°44' W 095°07'0 0.0
2017-Dec-01 09:56N 29°44' W 095°07'0 0.0
2017-Dec-01 07:08N 29°44' W 095°07'0 0.0
2017-Dec-01 06:56N 29°44' W 095°07'1 1.8
2017-Dec-01 06:27N 29°44' W 095°08'0 0.0
2017-Dec-01 05:52N 29°44' W 095°08'0 1.0
2017-Dec-01 05:30N 29°44' W 095°07'1 0.7
2017-Dec-01 04:20N 29°45' W 095°07'0 0.0
2017-Dec-01 03:57N 29°45' W 095°07'2 5.1
2017-Dec-01 03:28N 29°45' W 095°04'1 2.5
2017-Dec-01 03:00N 29°44' W 095°03'0 0.1
2017-Dec-01 02:27N 29°44' W 095°03'2 2.8
2017-Dec-01 01:44N 29°43' W 095°01'1 2.7
2017-Dec-01 01:30N 29°42' W 095°01'4 7.3
2017-Dec-01 00:56N 29°45' W 095°04'2 4.5
2017-Dec-01 00:25N 29°45' W 095°07'1 1.0
2017-Nov-30 23:08N 29°44' W 095°08'1 8.0
2017-Nov-30 22:58N 29°44' W 095°09'5 2.8
2017-Nov-30 21:09N 29°44' W 095°15'1 6.8
2017-Nov-30 21:00N 29°44' W 095°17'1 2.2
2017-Nov-30 20:23N 29°45' W 095°17'2 4.0
2017-Nov-30 19:59N 29°44' W 095°16'0 0.0
2017-Nov-30 11:29N 29°44' W 095°16'0 0.0
2017-Nov-30 10:53N 29°44' W 095°16'0 0.0
2017-Nov-30 10:01N 29°44' W 095°16'0 0.0
2017-Nov-30 09:59N 29°44' W 095°16'0 0.0
2017-Nov-30 09:28N 29°44' W 095°16'0 0.0
2017-Nov-30 08:40N 29°44' W 095°16'0 0.0
2017-Nov-30 08:16N 29°44' W 095°16'0 0.0
2017-Nov-30 07:40N 29°44' W 095°16'0 0.0
2017-Nov-30 07:28N 29°44' W 095°16'0 0.0
2017-Nov-30 05:55N 29°44' W 095°16'0 0.0
2017-Nov-30 04:52N 29°44' W 095°16'0 0.0
2017-Nov-30 04:28N 29°44' W 095°16'0 0.0
2017-Nov-30 03:04N 29°44' W 095°16'0 0.1
2017-Nov-30 02:59N 29°44' W 095°16'0 0.3
2017-Nov-30 02:30N 29°44' W 095°16'0 0.0
2017-Nov-30 02:00N 29°44' W 095°16'1 2.4
2017-Nov-30 01:30N 29°45' W 095°17'0 0.6
2017-Nov-30 00:59N 29°45' W 095°17'2 4.9
2017-Nov-30 00:30N 29°43' W 095°15'0 0.0
2017-Nov-29 05:20N 29°43' W 095°15'0 0.7
2017-Nov-29 04:58N 29°43' W 095°15'1 1.4
2017-Nov-29 04:05N 29°44' W 095°16'0 0.0
2017-Nov-29 01:31N 29°44' W 095°16'0 0.0
2017-Nov-29 01:13N 29°44' W 095°16'0 0.0
2017-Nov-29 00:57N 29°44' W 095°16'1 1.6
2017-Nov-29 00:26N 29°44' W 095°17'0 0.4
2017-Nov-28 23:53N 29°44' W 095°17'3 6.8
2017-Nov-28 23:30N 29°44' W 095°14'6 0.5
2017-Nov-28 11:59N 29°44' W 095°07'1 0.7
2017-Nov-28 10:44N 29°45' W 095°06'1 0.4
2017-Nov-28 08:32N 29°44' W 095°07'0 7.2
2017-Nov-28 08:30N 29°44' W 095°07'0 0.2
2017-Nov-28 05:22N 29°45' W 095°06'0 0.0
2017-Nov-27 13:27N 29°45' W 095°07'1 1.4
2017-Nov-27 12:56N 29°45' W 095°06'1 1.6
2017-Nov-27 12:27N 29°45' W 095°07'0 0.0
2017-Nov-27 11:54N 29°45' W 095°07'0 0.0
2017-Nov-27 11:21N 29°45' W 095°07'0 0.0
2017-Nov-27 11:00N 29°45' W 095°07'0 0.0
2017-Nov-27 09:54N 29°45' W 095°07'0 0.0
2017-Nov-27 06:33N 29°45' W 095°07'0 0.0
2017-Nov-27 06:15N 29°45' W 095°07'0 0.0
2017-Nov-27 04:45N 29°45' W 095°07'0 0.0
2017-Nov-27 04:12N 29°45' W 095°07'0 0.0
2017-Nov-27 03:57N 29°45' W 095°07'0 0.0
2017-Nov-27 03:30N 29°45' W 095°07'0 0.0
2017-Nov-27 02:57N 29°45' W 095°07'1 1.3
2017-Nov-27 02:23N 29°45' W 095°06'0 0.2
2017-Nov-27 01:58N 29°45' W 095°06'1 2.1
2017-Nov-27 01:28N 29°46' W 095°05'2 0.2
2017-Nov-26 17:52N 29°45' W 095°07'2 5.4
2017-Nov-26 17:30N 29°44' W 095°09'3 4.3
2017-Nov-26 16:49N 29°44' W 095°12'2 5.5
2017-Nov-26 16:29N 29°43' W 095°14'2 2.3
2017-Nov-26 15:39N 29°44' W 095°16'0 0.0
2017-Nov-26 14:42N 29°44' W 095°16'0 0.0
2017-Nov-26 14:15N 29°44' W 095°16'0 0.1
2017-Nov-26 06:51N 29°44' W 095°17'1 3.8
2017-Nov-26 06:30N 29°45' W 095°17'0 0.7
2017-Nov-26 06:00N 29°45' W 095°17'0 0.5
2017-Nov-26 05:30N 29°44' W 095°17'0 0.0
2017-Nov-26 04:53N 29°44' W 095°17'1 1.8
2017-Nov-26 04:24N 29°44' W 095°16'0 0.4
2017-Nov-26 03:52N 29°44' W 095°16'0 0.0
2017-Nov-26 01:46N 29°44' W 095°16'0 0.0
2017-Nov-26 01:30N 29°44' W 095°16'0 0.0
2017-Nov-26 01:00N 29°44' W 095°16'0 0.0
2017-Nov-26 00:28N 29°44' W 095°16'0 0.0
2017-Nov-26 00:00N 29°44' W 095°16'2 2.6
2017-Nov-25 23:24N 29°45' W 095°17'0 0.4
2017-Nov-25 22:56N 29°45' W 095°17'1 2.9
2017-Nov-25 22:29N 29°44' W 095°17'1 1.1
2017-Nov-25 22:00N 29°44' W 095°16'0 0.0
2017-Nov-25 21:20N 29°44' W 095°16'0 0.0
2017-Nov-25 20:53N 29°44' W 095°16'0 0.0
2017-Nov-25 20:26N 29°44' W 095°16'0 0.0
2017-Nov-25 19:50N 29°44' W 095°16'0 0.0
2017-Nov-25 18:14N 29°44' W 095°16'0 0.0
2017-Nov-25 17:59N 29°44' W 095°16'0 0.0
2017-Nov-25 17:17N 29°44' W 095°16'0 0.0
2017-Nov-25 16:38N 29°44' W 095°16'0 0.0
2017-Nov-25 16:29N 29°44' W 095°16'0 0.0
2017-Nov-25 15:10N 29°44' W 095°16'0 2.3
2017-Nov-25 15:00N 29°44' W 095°16'1 2.1
2017-Nov-25 14:30N 29°45' W 095°17'1 2.7
2017-Nov-25 14:00N 29°44' W 095°16'5 6.7
2017-Nov-25 13:16N 29°45' W 095°11'2 6.7
2017-Nov-25 13:00N 29°44' W 095°09'2 3.6
2017-Nov-25 12:30N 29°45' W 095°07'0 0.1
2017-Nov-25 06:11N 29°45' W 095°06'0 0.4
2017-Nov-25 05:39N 29°45' W 095°06'0 2.5
2017-Nov-25 05:30N 29°45' W 095°06'1 1.1
2017-Nov-25 04:59N 29°45' W 095°06'0 0.8
2017-Nov-25 04:26N 29°44' W 095°07'0 0.0
2017-Nov-24 18:51N 29°44' W 095°07'0 0.0
2017-Nov-24 14:49N 29°44' W 095°07'1 2.6
2017-Nov-24 14:28N 29°44' W 095°08'0 1.0
2017-Nov-24 13:58N 29°44' W 095°07'0 0.5
2017-Nov-24 12:57N 29°45' W 095°07'1 0.1
2017-Nov-24 06:02N 29°45' W 095°06'0 2.9
2017-Nov-24 05:59N 29°45' W 095°06'0 0.1
2017-Nov-24 05:30N 29°45' W 095°06'0 0.8
2017-Nov-24 04:59N 29°45' W 095°06'0 0.9
2017-Nov-24 04:29N 29°45' W 095°06'0 0.0
2017-Nov-24 04:00N 29°45' W 095°06'0 0.7
2017-Nov-24 03:30N 29°45' W 095°06'1 0.3
2017-Nov-24 01:24N 29°45' W 095°06'1 1.1
2017-Nov-24 00:56N 29°45' W 095°06'1 0.7
2017-Nov-23 23:38N 29°44' W 095°07'0 0.0
2017-Nov-23 22:50N 29°44' W 095°07'0 0.0
2017-Nov-23 22:28N 29°44' W 095°07'0 0.0
2017-Nov-23 21:58N 29°45' W 095°07'0 0.0
2017-Nov-23 21:06N 29°44' W 095°07'0 0.0
2017-Nov-23 20:48N 29°44' W 095°07'0 0.0
2017-Nov-23 20:29N 29°45' W 095°07'0 0.0
2017-Nov-23 19:58N 29°44' W 095°07'0 0.0
2017-Nov-23 19:29N 29°44' W 095°07'0 0.0
2017-Nov-23 18:59N 29°44' W 095°07'  

Dump ship's entire track history